Time;durP1;ratioP1;P1;durP2;ratioP2;P2;SDS_P1;SDS_P2;PMS_P1;PMS_P2;Temp;Humidity;BMP_temperature;BMP_pressure;BME280_temperature;BME280_humidity;BME280_pressure;Samples;Min_cycle;Max_cycle;Signal;HPM_P1;HPM_P2
2022/01/26 00:07:38;;;;;;;;;;;;;;;5.58;67.98;102786.22;7371467;19;20749;-68
2022/01/26 00:10:03;;;;;;;;;;;;;;;5.58;67.94;102796.56;7362861;19;19911;-68
2022/01/26 00:12:29;;;;;;;;;;;;;;;5.57;67.81;102793.06;7364760;19;20486;-68
2022/01/26 00:14:54;;;;;;;;;;;;;;;5.57;68.08;102792.19;7366898;19;19922;-68
2022/01/26 00:17:19;;;;;;;;;;;;;;;5.57;67.94;102789.59;7364334;19;19922;-68
2022/01/26 00:20:01;;;;;;;;;;;;;;;5.56;67.71;102799.09;7362091;19;19949;-68
2022/01/26 00:25:32;;;;;;;;;;;;;;;5.58;67.98;102787.09;7371148;19;19918;-68
2022/01/26 00:38:46;;;;;;;;;;;;;;;5.62;68.22;102796.69;7361281;19;19925;-68
2022/01/26 00:41:17;;;;;;;;;;;;;;;5.63;67.95;102795.88;7355021;19;19927;-68
2022/01/26 00:43:47;;;;;;;;;;;;;;;5.65;67.95;102801.09;7356981;19;20336;-68
2022/01/26 00:46:12;;;;;;;;;;;;;;;5.67;68.01;102807.19;7348656;19;19922;-68
2022/01/26 00:48:38;;;;;;;;;;;;;;;5.68;68.08;102809.00;7360608;19;20740;-68
2022/01/26 00:51:06;;;;;;;;;;;;;;;5.71;68.49;102798.69;7356086;19;20459;-67
2022/01/26 00:53:38;;;;;;;;;;;;;;;5.74;68.41;102793.63;7355609;19;19919;-68
2022/01/26 00:56:04;;;;;;;;;;;;;;;5.77;68.58;102790.22;7357445;19;19936;-68
2022/01/26 00:58:30;;;;;;;;;;;;;;;5.81;68.49;102787.78;7356917;19;19923;-68
2022/01/26 01:00:58;;;;;;;;;;;;;;;5.83;68.25;102780.94;7359732;19;19927;-68
2022/01/26 01:03:24;;;;;;;;;;;;;;;5.88;68.30;102784.56;7356999;19;19922;-68
2022/01/26 01:08:18;;;;;;;;;;;;;;;5.97;68.81;102776.19;7359843;19;19915;-68
2022/01/26 01:10:45;;;;;;;;;;;;;;;6.01;68.67;102774.56;7359942;19;19930;-68
2022/01/26 01:13:16;;;;;;;;;;;;;;;6.06;68.66;102765.19;7356070;19;22596;-68
2022/01/26 01:15:41;;;;;;;;;;;;;;;6.10;68.71;102764.47;7361133;19;19923;-68
2022/01/26 01:18:13;;;;;;;;;;;;;;;6.15;68.89;102775.84;7362888;19;19929;-68
2022/01/26 01:31:57;;;;;;;;;;;;;;;6.40;68.74;102783.50;7368448;19;19923;-67
2022/01/26 01:34:28;;;;;;;;;;;;;;;6.45;68.55;102779.31;7365417;19;19923;-69
2022/01/26 01:36:55;;;;;;;;;;;;;;;6.50;68.84;102790.69;7367420;19;19952;-70
2022/01/26 01:39:21;;;;;;;;;;;;;;;6.56;68.60;102783.91;7361211;19;19931;-67
2022/01/26 01:41:48;;;;;;;;;;;;;;;6.60;69.01;102798.75;7364905;19;19922;-67
2022/01/26 01:44:13;;;;;;;;;;;;;;;6.64;68.71;102800.56;7354454;19;22089;-69
2022/01/26 01:46:42;;;;;;;;;;;;;;;6.69;68.83;102806.75;7368826;19;19919;-68
2022/01/26 01:49:08;;;;;;;;;;;;;;;6.73;68.89;102809.47;7365110;19;20339;-69
2022/01/26 01:51:37;;;;;;;;;;;;;;;6.77;68.84;102805.25;7373554;19;19918;-69
2022/01/26 01:54:04;;;;;;;;;;;;;;;6.81;68.79;102804.50;7375015;19;20580;-69
2022/01/26 01:56:29;;;;;;;;;;;;;;;6.84;69.08;102804.56;7372947;19;19938;-69
2022/01/26 01:58:57;;;;;;;;;;;;;;;6.88;68.56;102798.63;7372291;19;20017;-68
2022/01/26 02:01:23;;;;;;;;;;;;;;;6.91;68.83;102793.50;7375638;19;19954;-68
2022/01/26 02:03:48;;;;;;;;;;;;;;;6.95;68.97;102795.34;7365518;19;19911;-68
2022/01/26 02:06:13;;;;;;;;;;;;;;;6.96;69.00;102789.31;7349833;19;19926;-68
2022/01/26 02:08:42;;;;;;;;;;;;;;;6.99;68.86;102792.00;7366273;19;19935;-69
2022/01/26 02:11:24;;;;;;;;;;;;;;;6.96;68.97;102781.53;4260746;19;10001379;-69
2022/01/26 02:16:35;;;;;;;;;;;;;;;7.07;68.49;102778.31;7371937;19;19931;-68
2022/01/26 02:51:37;;;;;;;;;;;;;;;7.30;68.63;102735.59;7357313;19;19921;-68
2022/01/26 03:01:47;;;;;;;;;;;;;;;7.36;68.51;102720.13;7367414;19;19915;-69
2022/01/26 03:07:20;;;;;;;;;;;;;;;7.41;68.64;102730.63;7261835;19;2004333;-68
2022/01/26 03:09:51;;;;;;;;;;;;;;;7.33;68.51;102709.66;7361988;19;19915;-69
2022/01/26 03:12:27;;;;;;;;;;;;;;;7.45;68.63;102732.44;7360820;19;20695;-69
2022/01/26 03:15:00;;;;;;;;;;;;;;;7.49;68.33;102731.66;7362181;19;19923;-68
2022/01/26 03:20:13;;;;;;;;;;;;;;;7.51;68.71;102725.69;7365226;19;19930;-69
2022/01/26 03:31:37;;;;;;;;;;;;;;;7.62;68.28;102706.84;7373554;19;19914;-68
2022/01/26 03:35:56;;;;;;;;;;;;;;;7.65;68.58;102707.75;7364462;19;19944;-68
2022/01/26 03:38:27;;;;;;;;;;;;;;;7.67;68.31;102705.22;7360648;19;19915;-68
2022/01/26 03:42:02;;;;;;;;;;;;;;;7.69;68.67;102695.72;7371498;19;19935;-68
2022/01/26 03:43:47;;;;;;;;;;;;;;;7.71;68.37;102699.25;7272757;19;2004543;-69
2022/01/26 03:46:12;;;;;;;;;;;;;;;7.73;68.46;102700.13;7370443;19;19919;-68
2022/01/26 03:48:37;;;;;;;;;;;;;;;7.73;68.72;102689.72;7374125;19;19945;-69
2022/01/26 03:51:03;;;;;;;;;;;;;;;7.74;68.38;102701.88;7373930;19;20017;-69
2022/01/26 03:53:28;;;;;;;;;;;;;;;7.75;68.60;102695.84;7371444;19;19923;-69
2022/01/26 03:55:54;;;;;;;;;;;;;;;7.75;68.74;102685.44;7345496;19;19923;-69
2022/01/26 03:58:19;;;;;;;;;;;;;;;7.75;68.79;102678.50;7361174;19;19931;-68
2022/01/26 04:00:44;;;;;;;;;;;;;;;7.77;68.28;102675.97;7364168;19;19914;-68
2022/01/26 04:03:10;;;;;;;;;;;;;;;7.77;68.33;102686.34;7357265;19;20258;-69
2022/01/26 04:05:35;;;;;;;;;;;;;;;7.78;68.63;102680.31;7354002;19;19927;-69
2022/01/26 04:08:07;;;;;;;;;;;;;;;7.77;68.45;102679.44;7361433;19;19949;-68
2022/01/26 04:13:23;;;;;;;;;;;;;;;7.78;68.33;102682.91;3346722;19;10002130;-69
2022/01/26 04:15:49;;;;;;;;;;;;;;;7.78;68.60;102683.78;7365110;19;19931;-68
2022/01/26 04:18:19;;;;;;;;;;;;;;;7.76;68.68;102675.09;7361379;19;19914;-69
2022/01/26 04:20:48;;;;;;;;;;;;;;;7.78;68.38;102672.50;7365964;19;19915;-69
2022/01/26 04:23:20;;;;;;;;;;;;;;;7.78;68.61;102682.91;7365145;19;19941;-69
2022/01/26 04:25:47;;;;;;;;;;;;;;;7.79;68.32;102680.31;7365882;19;19911;-69
2022/01/26 04:28:19;;;;;;;;;;;;;;;7.78;68.68;102678.56;7368108;19;19931;-68
2022/01/26 04:30:45;;;;;;;;;;;;;;;7.78;68.81;102668.19;7366399;19;19923;-68
2022/01/26 04:33:10;;;;;;;;;;;;;;;7.79;68.88;102653.44;7360326;19;19911;-69
2022/01/26 04:35:40;;;;;;;;;;;;;;;7.80;68.49;102650.00;7364439;19;19927;-68
2022/01/26 04:40:54;;;;;;;;;;;;;;;7.80;68.57;102644.78;7365794;19;19914;-69
2022/01/26 04:43:24;;;;;;;;;;;;;;;7.80;68.28;102639.59;7367819;19;19974;-69
2022/01/26 04:45:50;;;;;;;;;;;;;;;7.77;68.55;102639.53;7359370;19;19962;-69
2022/01/26 04:48:15;;;;;;;;;;;;;;;7.77;68.58;102644.75;7364449;19;19915;-69
2022/01/26 04:50:40;;;;;;;;;;;;;;;7.76;68.67;102648.19;7366408;19;19923;-68
2022/01/26 04:53:06;;;;;;;;;;;;;;;7.75;68.81;102647.28;7365086;19;19915;-69
2022/01/26 04:55:31;;;;;;;;;;;;;;;7.75;68.16;102644.69;7365751;19;19922;-69
2022/01/26 04:57:56;;;;;;;;;;;;;;;7.73;68.49;102643.81;7363917;19;19922;-69
2022/01/26 05:00:21;;;;;;;;;;;;;;;7.72;68.49;102647.25;7367146;19;19926;-68
2022/01/26 05:02:47;;;;;;;;;;;;;;;7.72;68.64;102638.56;7364904;19;19982;-68
2022/01/26 05:05:12;;;;;;;;;;;;;;;7.72;68.65;102630.78;7359878;19;19947;-69
2022/01/26 05:07:38;;;;;;;;;;;;;;;7.71;68.31;102634.22;7365713;19;19911;-68
2022/01/26 05:10:04;;;;;;;;;;;;;;;7.70;68.50;102632.44;7365440;19;20313;-69
2022/01/26 05:12:29;;;;;;;;;;;;;;;7.71;68.50;102636.81;7363002;19;19980;-69
2022/01/26 05:14:54;;;;;;;;;;;;;;;7.68;68.62;102634.16;7362631;19;19982;-68
2022/01/26 05:17:22;;;;;;;;;;;;;;;7.68;68.36;102640.22;7363129;19;20287;-68
2022/01/26 05:19:48;;;;;;;;;;;;;;;7.67;68.39;102637.59;7362623;19;19938;-69
2022/01/26 05:22:13;;;;;;;;;;;;;;;7.59;68.36;102629.63;7358009;19;19914;-68
2022/01/26 05:24:39;;;;;;;;;;;;;;;7.62;68.24;102634.03;7365618;19;19915;-68
2022/01/26 05:27:04;;;;;;;;;;;;;;;7.59;68.74;102639.16;7363184;19;19926;-68
2022/01/26 05:29:29;;;;;;;;;;;;;;;7.56;68.35;102640.00;7362437;19;19919;-68
2022/01/26 05:31:55;;;;;;;;;;;;;;;7.52;68.44;102639.03;7362459;19;19923;-68
2022/01/26 05:34:20;;;;;;;;;;;;;;;7.45;68.77;102631.97;7362762;19;19924;-69
2022/01/26 05:36:45;;;;;;;;;;;;;;;7.48;68.80;102638.94;7363728;19;19942;-68
2022/01/26 05:39:11;;;;;;;;;;;;;;;7.45;68.38;102642.38;7363908;19;19915;-68
2022/01/26 05:41:38;;;;;;;;;;;;;;;7.42;68.57;102647.50;7368335;19;19915;-68
2022/01/26 05:44:03;;;;;;;;;;;;;;;7.37;68.78;102654.31;7372448;19;19915;-68
2022/01/26 05:46:48;;;;;;;;;;;;;;;7.36;68.47;102654.28;7357355;19;19907;-69
2022/01/26 05:49:13;;;;;;;;;;;;;;;7.32;68.31;102650.72;7357808;19;19911;-68
2022/01/26 05:51:39;;;;;;;;;;;;;;;7.30;68.77;102657.63;7361736;19;19918;-68
2022/01/26 05:54:05;;;;;;;;;;;;;;;7.27;68.40;102649.75;7362288;19;20608;-68
2022/01/26 05:56:30;;;;;;;;;;;;;;;7.27;68.77;102649.75;7359235;19;19921;-68
2022/01/26 05:58:56;;;;;;;;;;;;;;;7.26;68.82;102650.59;7360592;19;19931;-69
2022/01/26 06:01:22;;;;;;;;;;;;;;;7.25;68.95;102641.94;7361091;19;19919;-68
2022/01/26 06:03:47;;;;;;;;;;;;;;;7.25;68.88;102635.88;7368798;19;19952;-69
2022/01/26 06:06:17;;;;;;;;;;;;;;;7.25;68.90;102633.25;1864036;19;10020901;-69
2022/01/26 06:08:42;;;;;;;;;;;;;;;7.24;68.47;102637.56;6656651;19;10000549;-68
2022/01/26 06:11:08;;;;;;;;;;;;;;;7.24;68.85;102632.34;7368180;19;19919;-69
2022/01/26 06:13:33;;;;;;;;;;;;;;;7.24;68.58;102621.09;7369830;19;19922;-69
2022/01/26 06:15:59;;;;;;;;;;;;;;;7.24;68.79;102601.19;7365488;19;19957;-68
2022/01/26 06:18:24;;;;;;;;;;;;;;;7.24;68.61;102595.09;7370955;19;19923;-69
2022/01/26 06:20:50;;;;;;;;;;;;;;;7.23;68.77;102598.56;7376588;19;19919;-68
2022/01/26 06:23:15;;;;;;;;;;;;;;;7.21;68.79;102589.88;7373341;19;19998;-68
2022/01/26 06:25:41;;;;;;;;;;;;;;;7.17;68.48;102577.66;7374553;19;19936;-69
2022/01/26 06:28:11;;;;;;;;;;;;;;;7.14;68.36;102577.56;7376529;19;19922;-68
2022/01/26 06:30:36;;;;;;;;;;;;;;;7.10;68.55;102588.75;7375457;19;19923;-69
2022/01/26 06:33:02;;;;;;;;;;;;;;;7.07;68.51;102580.88;7373508;19;19953;-68
2022/01/26 06:35:27;;;;;;;;;;;;;;;7.03;68.61;102574.75;7365507;19;19923;-68
2022/01/26 06:37:53;;;;;;;;;;;;;;;7.00;68.88;102570.38;7362454;19;19983;-69
2022/01/26 06:40:18;;;;;;;;;;;;;;;6.98;68.60;102578.94;7367690;19;19959;-68
2022/01/26 06:45:18;;;;;;;;;;;;;;;6.92;68.82;102571.91;7367945;19;19933;-68
2022/01/26 06:50:27;;;;;;;;;;;;;;;6.87;68.80;102581.31;7369219;19;20276;-68
2022/01/26 06:52:53;;;;;;;;;;;;;;;6.87;68.98;102588.22;7369112;19;19923;-68
2022/01/26 06:55:19;;;;;;;;;;;;;;;6.84;68.90;102583.81;7363211;19;19930;-68
2022/01/26 06:57:45;;;;;;;;;;;;;;;6.83;69.17;102579.47;7360164;19;19919;-69
2022/01/26 07:00:10;;;;;;;;;;;;;;;6.81;69.04;102578.59;7365663;19;19927;-68
2022/01/26 07:02:39;;;;;;;;;;;;;;;6.79;69.05;102594.94;7363499;19;19923;-69
2022/01/26 07:05:05;;;;;;;;;;;;;;;6.78;68.77;102594.09;7364570;19;20028;-68
2022/01/26 07:07:30;;;;;;;;;;;;;;;6.76;69.13;102591.47;7367298;19;19923;-68
2022/01/26 07:09:56;;;;;;;;;;;;;;;6.75;69.45;102594.03;7360082;19;19955;-68
2022/01/26 07:12:21;;;;;;;;;;;;;;;6.74;69.34;102590.56;7367306;19;19926;-68
2022/01/26 07:22:42;;;;;;;;;;;;;;;6.70;69.04;102569.69;7372800;19;19922;-69
2022/01/26 07:25:08;;;;;;;;;;;;;;;6.70;69.00;102572.28;7362994;19;19944;-68
2022/01/26 07:27:33;;;;;;;;;;;;;;;6.70;69.43;102575.75;7366241;19;20022;-69
2022/01/26 07:29:59;;;;;;;;;;;;;;;6.72;69.56;102567.97;7368802;19;19915;-68
2022/01/26 07:32:27;;;;;;;;;;;;;;;6.72;69.40;102561.06;7367138;19;19923;-68
2022/01/26 07:34:52;;;;;;;;;;;;;;;6.74;69.60;102551.63;7360909;19;19974;-69
2022/01/26 07:37:20;;;;;;;;;;;;;;;6.78;69.37;102572.44;7366272;19;19958;-68
2022/01/26 07:39:50;;;;;;;;;;;;;;;6.79;69.47;102574.19;7364742;19;19922;-69
2022/01/26 07:42:15;;;;;;;;;;;;;;;6.80;69.54;102574.25;7356304;19;19922;-68
2022/01/26 07:44:41;;;;;;;;;;;;;;;6.81;69.15;102567.31;7362621;19;19948;-69
2022/01/26 07:47:07;;;;;;;;;;;;;;;6.82;69.07;102574.25;7360396;19;19960;-68
2022/01/26 07:49:32;;;;;;;;;;;;;;;6.83;69.22;102571.69;7361183;19;19923;-68
2022/01/26 07:51:57;;;;;;;;;;;;;;;6.82;68.97;102569.94;7359383;19;19922;-68
2022/01/26 07:54:24;;;;;;;;;;;;;;;6.82;69.53;102575.13;7364389;19;19923;-69
2022/01/26 07:56:49;;;;;;;;;;;;;;;6.82;68.95;102580.34;7364488;19;20372;-69
2022/01/26 07:59:29;;;;;;;;;;;;;;;6.81;69.16;102576.00;2622462;19;10021201;-69
2022/01/26 08:01:54;;;;;;;;;;;;;;;6.81;69.46;102577.72;6549018;19;10001255;-68
2022/01/26 08:04:20;;;;;;;;;;;;;;;6.81;69.04;102572.53;7362284;19;19921;-69
2022/01/26 08:06:45;;;;;;;;;;;;;;;6.80;69.34;102569.03;7359321;19;19923;-68
2022/01/26 08:09:11;;;;;;;;;;;;;;;6.80;69.41;102566.44;7361510;19;19927;-68
2022/01/26 08:11:36;;;;;;;;;;;;;;;6.80;69.31;102568.19;7346809;19;19926;-68
2022/01/26 08:14:02;;;;;;;;;;;;;;;6.81;69.18;102572.53;7350473;19;19926;-68
2022/01/26 08:16:27;;;;;;;;;;;;;;;6.80;69.53;102570.78;7367874;19;19910;-68
2022/01/26 08:18:52;;;;;;;;;;;;;;;6.79;69.36;102567.25;7360889;19;20332;-68
2022/01/26 08:21:19;;;;;;;;;;;;;;;6.80;69.19;102576.84;7364885;19;19927;-68
2022/01/26 08:23:44;;;;;;;;;;;;;;;6.80;69.51;102566.44;7357656;19;19922;-68
2022/01/26 08:26:10;;;;;;;;;;;;;;;6.82;69.51;102569.06;7351552;19;20378;-69
2022/01/26 08:28:39;;;;;;;;;;;;;;;6.83;69.54;102563.91;7362678;19;19922;-68
2022/01/26 08:31:04;;;;;;;;;;;;;;;6.84;69.42;102562.19;7363147;19;19935;-69
2022/01/26 08:33:30;;;;;;;;;;;;;;;6.85;69.55;102559.66;7358857;19;20470;-69
2022/01/26 08:35:55;;;;;;;;;;;;;;;6.86;69.48;102565.72;7361681;19;19915;-68
2022/01/26 08:38:21;;;;;;;;;;;;;;;6.87;69.17;102568.34;7361530;19;19926;-68
2022/01/26 08:40:47;;;;;;;;;;;;;;;6.89;69.56;102577.03;7364192;19;19915;-68
2022/01/26 08:43:13;;;;;;;;;;;;;;;6.91;69.21;102583.16;7359460;19;19922;-69
2022/01/26 08:45:38;;;;;;;;;;;;;;;6.94;69.34;102579.72;7363589;19;19922;-69
2022/01/26 08:48:04;;;;;;;;;;;;;;;6.95;69.35;102582.38;7351905;19;20386;-69
2022/01/26 08:50:29;;;;;;;;;;;;;;;6.96;69.62;102573.75;7361705;19;20308;-69
2022/01/26 08:52:55;;;;;;;;;;;;;;;6.98;69.51;102569.44;7360005;19;19926;-69
2022/01/26 08:55:20;;;;;;;;;;;;;;;7.00;69.50;102567.78;7365091;19;19922;-69
2022/01/26 08:57:45;;;;;;;;;;;;;;;7.02;69.46;102563.47;7361295;19;19945;-68
2022/01/26 09:00:12;;;;;;;;;;;;;;;7.06;69.43;102563.56;7358691;19;19943;-69
2022/01/26 09:02:38;;;;;;;;;;;;;;;7.09;69.61;102566.19;7359872;19;19918;-68
2022/01/26 09:05:04;;;;;;;;;;;;;;;7.12;69.28;102563.69;7355178;19;19940;-69
2022/01/26 09:07:30;;;;;;;;;;;;;;;7.15;69.21;102568.97;7367725;19;19952;-68
2022/01/26 09:09:59;;;;;;;;;;;;;;;7.18;69.60;102563.81;7353799;19;19923;-69
2022/01/26 09:12:25;;;;;;;;;;;;;;;7.22;69.29;102560.44;7362309;19;19911;-68
2022/01/26 09:14:52;;;;;;;;;;;;;;;7.26;69.23;102564.84;7368697;19;19935;-69
2022/01/26 09:17:18;;;;;;;;;;;;;;;7.29;69.09;102557.09;7361378;19;19918;-69
2022/01/26 09:19:45;;;;;;;;;;;;;;;7.34;69.40;102554.59;7361916;19;19915;-68
2022/01/26 09:22:14;;;;;;;;;;;;;;;7.42;69.81;102553.03;7362290;19;19927;-68
2022/01/26 09:24:41;;;;;;;;;;;;;;;7.57;69.84;102555.06;7362937;19;19946;-69
2022/01/26 09:27:07;;;;;;;;;;;;;;;7.75;70.01;102558.88;7364025;19;19923;-69
2022/01/26 09:29:33;;;;;;;;;;;;;;;7.95;69.95;102551.44;7357642;19;19923;-69
2022/01/26 09:31:59;;;;;;;;;;;;;;;8.15;70.26;102540.50;7359284;19;19919;-69
2022/01/26 09:34:26;;;;;;;;;;;;;;;8.39;70.34;102538.34;7354574;19;19932;-69
2022/01/26 09:36:52;;;;;;;;;;;;;;;8.66;70.02;102531.78;7361086;19;20291;-69
2022/01/26 09:39:18;;;;;;;;;;;;;;;8.91;69.74;102538.22;7366908;19;19919;-69
2022/01/26 09:41:44;;;;;;;;;;;;;;;9.14;70.20;102544.63;7368857;19;19922;-69
2022/01/26 09:44:09;;;;;;;;;;;;;;;9.39;69.64;102547.53;7359452;19;20342;-68
2022/01/26 09:46:34;;;;;;;;;;;;;;;9.65;69.61;102534.78;7366180;19;21159;-69
2022/01/26 09:49:01;;;;;;;;;;;;;;;9.90;69.56;102528.94;7369149;19;19949;-69
2022/01/26 09:51:27;;;;;;;;;;;;;;;10.11;69.24;102525.66;7368672;19;19944;-69
2022/01/26 09:54:12;;;;;;;;;;;;;;;10.36;68.59;102535.47;5082774;19;10001072;-69
2022/01/26 09:56:38;;;;;;;;;;;;;;;10.54;68.31;102532.13;4016480;19;10001562;-69
2022/01/26 09:59:03;;;;;;;;;;;;;;;10.75;68.33;102520.06;7366285;19;19998;-69
2022/01/26 10:01:38;;;;;;;;;;;;;;;10.93;67.81;102525.38;7374758;19;19922;-69
2022/01/26 10:04:04;;;;;;;;;;;;;;;11.12;67.75;102532.44;7365047;19;19956;-69
2022/01/26 10:06:30;;;;;;;;;;;;;;;11.30;67.73;102512.44;7367744;19;19923;-68
2022/01/26 10:09:05;;;;;;;;;;;;;;;11.48;67.56;102499.41;7365564;19;20169;-68
2022/01/26 10:19:25;;;;;;;;;;;;;;;12.18;64.75;102490.78;7359329;19;19914;-69
2022/01/26 10:21:51;;;;;;;;;;;;;;;12.31;64.21;102496.88;7357471;19;20361;-68
2022/01/26 10:24:20;;;;;;;;;;;;;;;12.39;64.10;102488.13;7367418;19;19911;-68
2022/01/26 10:26:49;;;;;;;;;;;;;;;12.53;64.13;102498.59;7365984;19;19918;-68
2022/01/26 10:29:15;;;;;;;;;;;;;;;12.67;64.07;102494.22;7361933;19;19949;-68
2022/01/26 10:31:41;;;;;;;;;;;;;;;12.83;63.04;102502.03;7365598;19;19941;-68
2022/01/26 10:34:06;;;;;;;;;;;;;;;12.94;62.69;102505.47;7369378;19;19911;-68
2022/01/26 10:36:39;;;;;;;;;;;;;;;13.06;62.88;102502.78;7352423;19;19935;-68
2022/01/26 10:39:07;;;;;;;;;;;;;;;13.21;62.30;102508.00;7358821;19;19918;-68
2022/01/26 10:41:32;;;;;;;;;;;;;;;13.33;63.01;102511.44;7367427;19;19922;-68
2022/01/26 10:43:59;;;;;;;;;;;;;;;13.52;62.54;102513.09;7362357;19;19915;-68
2022/01/26 10:46:30;;;;;;;;;;;;;;;13.71;62.09;102504.22;7359274;19;19943;-69
2022/01/26 10:49:43;;;;;;;;;;;;;;;13.89;61.70;102510.22;7364426;19;19926;-68
2022/01/26 10:52:00;;;;;;;;;;;;;;;14.07;61.16;102509.22;7265264;19;2004550;-68
2022/01/26 10:54:38;;;;;;;;;;;;;;;14.23;60.31;102514.31;7351553;19;19910;-68
2022/01/26 10:57:04;;;;;;;;;;;;;;;14.38;60.47;102512.44;7365508;19;20288;-68
2022/01/26 10:59:31;;;;;;;;;;;;;;;14.52;60.25;102518.47;7339213;19;19915;-68
2022/01/26 11:02:00;;;;;;;;;;;;;;;14.66;59.75;102508.69;7353783;19;19930;-68
2022/01/26 11:04:27;;;;;;;;;;;;;;;14.81;59.30;102515.53;7367719;19;20710;-68
2022/01/26 11:06:53;;;;;;;;;;;;;;;14.96;59.44;102527.63;7360763;19;19942;-69
2022/01/26 11:09:21;;;;;;;;;;;;;;;15.12;58.36;102517.78;7361750;19;19915;-68
2022/01/26 11:11:46;;;;;;;;;;;;;;;15.20;58.51;102524.69;7365014;19;19914;-68
2022/01/26 11:14:22;;;;;;;;;;;;;;;15.30;57.74;102513.13;7367482;19;19915;-68
2022/01/26 11:16:47;;;;;;;;;;;;;;;15.41;57.67;102509.50;7342451;19;19918;-68
2022/01/26 11:19:14;;;;;;;;;;;;;;;15.46;57.48;102508.56;7364141;19;19928;-69
2022/01/26 11:21:40;;;;;;;;;;;;;;;15.55;58.39;102504.91;7364970;19;19918;-67
2022/01/26 11:24:10;;;;;;;;;;;;;;;15.67;57.75;102502.13;7367333;19;19915;-68
2022/01/26 11:26:38;;;;;;;;;;;;;;;15.80;57.75;102487.88;7366646;19;19919;-68
2022/01/26 11:29:12;;;;;;;;;;;;;;;15.93;57.96;102487.69;7363709;19;19955;-68
2022/01/26 11:31:38;;;;;;;;;;;;;;;16.09;57.13;102483.88;7362853;19;19923;-68
2022/01/26 11:34:04;;;;;;;;;;;;;;;16.17;56.80;102482.00;7367984;19;19954;-68
2022/01/26 11:36:32;;;;;;;;;;;;;;;16.27;56.39;102488.84;7348072;19;19915;-68
2022/01/26 11:46:58;;;;;;;;;;;;;;;16.43;53.87;102463.06;7363729;19;19940;-68
2022/01/26 11:49:25;;;;;;;;;;;;;;;16.43;54.47;102454.28;7366365;19;19927;-68
2022/01/26 11:51:51;;;;;;;;;;;;;;;16.47;54.42;102453.31;7364186;19;20017;-68
2022/01/26 11:54:51;;;;;;;;;;;;;;;16.53;53.66;102445.31;7362523;19;19979;-69
2022/01/26 11:57:18;;;;;;;;;;;;;;;16.59;53.68;102439.91;7255283;19;2004238;-68
2022/01/26 11:59:56;;;;;;;;;;;;;;;16.64;53.91;102443.31;6742594;19;10000402;-69
2022/01/26 12:02:32;;;;;;;;;;;;;;;16.72;52.99;102444.03;2229485;19;10002048;-68
2022/01/26 12:05:02;;;;;;;;;;;;;;;16.74;52.66;102426.44;7358761;19;19923;-68
2022/01/26 12:07:28;;;;;;;;;;;;;;;16.77;52.01;102430.75;7364032;19;19923;-68
2022/01/26 12:09:55;;;;;;;;;;;;;;;16.78;51.34;102433.41;7366705;19;19998;-68
2022/01/26 12:12:22;;;;;;;;;;;;;;;16.78;51.96;102421.97;7366538;19;19986;-68
2022/01/26 12:14:59;;;;;;;;;;;;;;;16.82;50.71;102429.75;7364375;19;19935;-68
2022/01/26 12:17:28;;;;;;;;;;;;;;;16.84;51.23;102417.44;7363282;19;19956;-68
2022/01/26 12:31:58;;;;;;;;;;;;;;;16.89;50.23;102422.59;7344386;19;19958;-68
2022/01/26 12:34:39;;;;;;;;;;;;;;;16.99;49.84;102388.97;7352544;19;20399;-68
2022/01/26 12:45:20;;;;;;;;;;;;;;;17.11;49.16;102386.03;7362740;19;20427;-68
2022/01/26 12:47:45;;;;;;;;;;;;;;;17.14;49.13;102375.41;7325847;19;19941;-68
2022/01/26 12:50:11;;;;;;;;;;;;;;;17.21;48.81;102386.69;7359675;19;19958;-68
2022/01/26 12:52:36;;;;;;;;;;;;;;;17.23;48.75;102377.81;7360486;19;19931;-68
2022/01/26 12:55:02;;;;;;;;;;;;;;;17.23;48.70;102375.19;7359407;19;19927;-68
2022/01/26 12:57:27;;;;;;;;;;;;;;;17.15;48.58;102378.94;7357068;19;19918;-68
2022/01/26 13:00:19;;;;;;;;;;;;;;;17.00;48.25;102359.88;7362469;19;19929;-68
2022/01/26 13:02:44;;;;;;;;;;;;;;;16.79;48.58;102341.91;7361287;19;19933;-68
2022/01/26 13:05:10;;;;;;;;;;;;;;;16.63;49.04;102341.34;7353134;19;19915;-68
2022/01/26 13:07:36;;;;;;;;;;;;;;;16.56;49.03;102337.09;7344971;19;19931;-67
2022/01/26 13:10:12;;;;;;;;;;;;;;;16.53;49.40;102331.91;7360366;19;19935;-68
2022/01/26 13:12:37;;;;;;;;;;;;;;;16.55;49.89;102330.09;7349473;19;19926;-67
2022/01/26 13:15:26;;;;;;;;;;;;;;;16.59;50.16;102322.09;7361419;19;19919;-68
2022/01/26 13:17:55;;;;;;;;;;;;;;;16.66;49.04;102312.25;7354646;19;20658;-68
2022/01/26 13:25:37;;;;;;;;;;;;;;;16.32;48.75;102297.19;7364497;19;20343;-67
2022/01/26 13:31:20;;;;;;;;;;;;;;;16.06;49.37;102284.53;7364074;19;19919;-68
2022/01/26 13:41:21;;;;;;;;;;;;;;;15.65;47.98;102272.16;7361501;19;20051;-67
2022/01/26 13:59:30;;;;;;;;;;;;;;;14.69;50.07;102229.91;6647254;19;10000591;-68
2022/01/26 14:01:57;;;;;;;;;;;;;;;14.65;50.07;102222.97;7340079;19;19923;-67
2022/01/26 14:04:22;;;;;;;;;;;;;;;14.65;50.29;102207.19;7358798;19;19922;-68
2022/01/26 14:06:48;;;;;;;;;;;;;;;14.69;50.07;102203.59;7361519;19;19942;-67
2022/01/26 14:09:14;;;;;;;;;;;;;;;14.74;49.95;102191.25;7355979;19;19943;-68
2022/01/26 14:11:40;;;;;;;;;;;;;;;14.79;49.83;102199.06;7357387;19;19937;-67
2022/01/26 14:14:05;;;;;;;;;;;;;;;14.79;49.65;102184.16;7361852;19;19957;-67
2022/01/26 14:16:39;;;;;;;;;;;;;;;14.76;49.93;102183.34;7337787;19;20362;-67
2022/01/26 14:19:12;;;;;;;;;;;;;;;14.71;49.62;102179.94;7357642;19;19952;-67
2022/01/26 14:22:07;;;;;;;;;;;;;;;14.64;49.81;102170.38;7357559;19;19925;-68
2022/01/26 14:24:49;;;;;;;;;;;;;;;14.50;49.51;102186.41;7361770;19;19922;-68
2022/01/26 14:27:14;;;;;;;;;;;;;;;14.37;49.83;102184.81;7318713;19;19923;-67
2022/01/26 14:30:14;;;;;;;;;;;;;;;14.29;50.22;102187.53;7363851;19;19918;-68
2022/01/26 14:40:44;;;;;;;;;;;;;;;13.97;51.02;102167.84;7369690;19;19945;-67
2022/01/26 14:54:28;;;;;;;;;;;;;;;13.72;52.02;102127.91;7370884;19;19918;-68
2022/01/26 16:28:03;;;;;;;;;;;;;;;12.39;55.95;102036.66;7362173;19;20731;-68
2022/01/26 16:36:29;;;;;;;;;;;;;;;12.31;56.68;102028.00;7252453;19;2004186;-68
2022/01/26 16:39:05;;;;;;;;;;;;;;;12.27;56.46;102036.78;7259593;19;2004321;-68
2022/01/26 17:34:28;;;;;;;;;;;;;;;11.65;59.05;101973.50;7367356;19;20529;-68
2022/01/26 18:13:04;;;;;;;;;;;;;;;11.36;61.74;101939.69;7368325;19;19919;-68
2022/01/26 18:15:46;;;;;;;;;;;;;;;11.30;61.91;101934.47;7366915;19;19940;-68
2022/01/26 18:49:43;;;;;;;;;;;;;;;11.40;63.79;101946.63;7358032;19;19911;-68
2022/01/26 18:52:09;;;;;;;;;;;;;;;11.42;63.56;101921.34;7358701;19;20138;-67
2022/01/26 18:54:36;;;;;;;;;;;;;;;11.44;63.67;101928.28;7360990;19;19922;-68
2022/01/26 18:57:03;;;;;;;;;;;;;;;11.45;63.79;101926.53;7362080;19;19925;-67
2022/01/26 18:59:29;;;;;;;;;;;;;;;11.47;63.61;101927.41;7363952;19;19942;-67
2022/01/26 19:01:55;;;;;;;;;;;;;;;11.49;63.86;101940.47;7362124;19;19926;-67
2022/01/26 19:04:28;;;;;;;;;;;;;;;11.51;64.21;101933.50;7369150;19;20564;-68
2022/01/26 19:06:54;;;;;;;;;;;;;;;11.53;63.96;101924.75;7363012;19;20367;-68
2022/01/26 19:09:23;;;;;;;;;;;;;;;11.55;63.99;101904.66;7354901;19;19918;-68
2022/01/26 19:11:49;;;;;;;;;;;;;;;11.57;63.77;101908.16;7353575;19;19998;-68
2022/01/26 19:14:14;;;;;;;;;;;;;;;11.58;64.41;101915.13;7351962;19;20093;-68
2022/01/26 19:16:52;;;;;;;;;;;;;;;11.61;64.59;101925.56;7357077;19;19923;-68
2022/01/26 19:19:30;;;;;;;;;;;;;;;11.62;64.19;101914.22;7359112;19;20365;-68
2022/01/26 19:22:10;;;;;;;;;;;;;;;11.64;64.59;101907.22;7354348;19;19918;-67
2022/01/26 19:27:12;;;;;;;;;;;;;;;11.66;64.72;101902.84;7347505;19;19941;-68
2022/01/26 19:46:10;;;;;;;;;;;;;;;11.68;64.78;101890.63;7368032;19;19939;-68
2022/01/26 19:51:21;;;;;;;;;;;;;;;11.67;64.89;101893.25;7361559;19;19918;-68
2022/01/26 19:53:59;;;;;;;;;;;;;;;11.55;65.04;101873.28;2532149;19;10021916;-68
2022/01/26 19:56:24;;;;;;;;;;;;;;;11.64;64.97;101882.81;6543849;19;10000450;-67
2022/01/26 19:58:50;;;;;;;;;;;;;;;11.64;65.86;101880.19;7356697;19;19936;-67
2022/01/26 20:01:15;;;;;;;;;;;;;;;11.65;65.34;101885.41;7357742;19;20678;-68
2022/01/26 20:03:41;;;;;;;;;;;;;;;11.64;65.77;101881.06;7344755;19;19918;-68